Disclaimer

Please do not use the information listed here in-flight or in-navigation, as they are not provided to us by the airports but are provided by volunteers, so they might be outdated.

Search


Regions


Airport information page

Radio informations:
Tower (TWR) - 118.1 MHz
Approach/Departure (APP/DEP) - 119.7 MHz

Airport informations:
Latitude: 67° 16' 09.00" N
Longitude: 014° 21' 55.00" E
Elevation: 42 feet - 13 meters
Operating hours: 24 hour operations
Operating agency: Military-civil joint use airport
Timezone: UTC+1(+2DT) - Last Sunday in March to last Sunday in October
Fuel: JP-4, Wide cut turbine fuel MIL Spec T-5624

Jet fuel avaiable but type is unknown.

100/130 MIL Spec, low lead, aviation gasoline (BLUE)

Runway information:
07/25 - 11136 x 148 feet< - >3394 x 45 meters

Recent METARs:
ENBO 202220Z 07006KT CAVOK 01/M01 Q1037 NOSIG
ENBO 202250Z 08006KT CAVOK M01/M02 Q1037 NOSIG
ENBO 202250Z 08006KT CAVOK M01/M02 Q1037 NOSIG

Airport on the map: